Latest Weather Observations for Strahan

IDT60801

Issued at 4:31 pm EDT Friday 12 February 2016 (issued every 30 minutes, with the page automatically refreshed every 10 minutes)

About weather observations | Map of weather stations | Latest weather observations for TAS | Other Formats
Station Details ID: 097072 Name: STRAHAN AERODROME Lat: -42.16 Lon: 145.29 Height: 21.0 m
Data from the previous 72 hours. | See also: Recent months at Strahan
Date/Time
EDT
Temp
°C
App
Temp
°C
Dew
Point
Rel
Hum
%
Delta-T
°C
Wind Press
QNH
hPa
Press
MSL
hPa
Rain
since 9 am
mm
Dir
 
Spd
km/h
Gust
km/h
Spd
kts
Gust
kts
12/04:30pm 21.1 19.0 12.5 58 4.9 WSW 15 24 8 13 1012.6 1012.6 0.0
12/04:00pm 21.6 18.6 12.7 57 5.1 W 20 26 11 14 1012.9 1012.9 0.0
12/03:30pm 22.6 20.3 13.1 55 5.5 WSW 17 22 9 12 1012.6 1012.6 0.0
12/03:00pm 22.7 20.1 13.2 55 5.5 W 19 26 10 14 1012.9 1012.9 0.0
12/02:30pm 22.7 19.8 12.9 54 5.6 W 20 28 11 15 1013.3 1013.3 0.0
12/02:00pm 23.3 21.6 13.5 54 5.7 WSW 15 20 8 11 1013.7 1013.7 0.0
12/01:30pm 22.1 19.3 12.6 55 5.4 WSW 19 24 10 13 1014.2 1014.2 0.0
12/01:00pm 21.8 18.8 12.4 55 5.3 WSW 20 28 11 15 1014.4 1014.4 0.0
12/12:30pm 21.5 20.7 12.9 58 4.9 S 9 17 5 9 1014.8 1014.8 0.0
12/12:00pm 20.8 19.6 12.8 60 4.5 SSE 11 15 6 8 1015.2 1015.2 0.0
12/11:30am 20.2 18.8 12.2 60 4.5 SSE 11 17 6 9 1016.0 1015.9 0.0
12/11:00am 18.9 17.7 11.5 62 4.1 S 9 15 5 8 1016.5 1016.4 0.0
12/10:30am 18.2 17.2 12.2 68 3.3 SSE 9 15 5 8 1016.9 1016.8 0.0
12/10:00am 17.7 16.8 11.3 66 3.5 SSE 7 9 4 5 1017.4 1017.3 0.0
12/09:30am 16.5 15.7 11.2 71 2.9 SE 6 9 3 5 1017.6 1017.5 0.0
12/09:00am 15.3 14.5 11.7 79 1.9 ESE 7 9 4 5 1017.8 1017.7 0.0
12/08:30am 12.8 11.8 10.3 85 1.3 NW 6 7 3 4 1017.9 1017.8 0.0
12/08:00am 11.4 9.9 9.1 86 1.1 NNE 7 11 4 6 1017.5 1017.4 0.0
12/07:30am 10.2 8.2 8.5 89 0.8 NNE 9 11 5 6 1017.4 1017.3 0.0
12/07:00am 9.6 7.4 7.9 89 0.8 NNE 9 11 5 6 1017.1 1017.0 0.0
12/06:30am 9.6 7.8 7.9 89 0.8 NNE 7 9 4 5 1016.8 1016.7 0.0
12/06:00am 10.0 7.9 8.1 88 0.9 NNE 9 11 5 6 1016.4 1016.3 0.0
12/05:30am 9.9 8.1 8.0 88 0.9 NE 7 11 4 6 1016.6 1016.5 0.0
12/05:00am 9.8 8.2 8.1 89 0.8 NE 6 7 3 4 1016.8 1016.7 0.0
12/04:30am 9.6 7.7 7.5 87 1.0 NE 7 9 4 5 1017.0 1016.9 0.0
12/04:00am 10.3 8.8 8.4 88 0.9 NNE 6 7 3 4 1017.2 1017.1 0.0
12/03:30am 10.1 8.5 7.9 86 1.1 ENE 6 6 3 3 1017.6 1017.5 0.0
12/03:00am 10.5 9.4 8.3 86 1.1 ENE 4 7 2 4 1017.7 1017.6 0.0
12/02:30am 10.9 9.1 8.1 83 1.4 ENE 7 9 4 5 1017.9 1017.8 0.0
12/02:00am 11.5 9.9 8.7 83 1.4 E 7 9 4 5 1018.1 1018.0 0.0
12/01:30am 12.3 10.8 9.3 82 1.5 ENE 7 9 4 5 1018.4 1018.3 0.0
12/01:00am 12.9 10.1 9.9 82 1.5 ESE 15 19 8 10 1018.3 1018.2 0.0
12/12:30am 13.2 10.3 9.8 80 1.7 SE 15 19 8 10 1018.6 1018.5 0.0
12/12:00am 13.4 10.5 9.8 79 1.8 SE 15 19 8 10 1018.8 1018.7 0.0
 
Date/Time
EDT
Temp
°C
App
Temp
°C
Dew
Point
Rel
Hum
%
Delta-T
°C
Wind Press
QNH
hPa
Press
MSL
hPa
Rain
since 9 am
mm
Dir
 
Spd
km/h
Gust
km/h
Spd
kts
Gust
kts
11/11:30pm 14.1 11.7 9.9 76 2.2 SE 13 19 7 10 1019.0 1018.9 0.0
11/11:00pm 14.3 11.0 9.7 74 2.4 SSE 17 24 9 13 1019.0 1018.9 0.0
11/10:30pm 14.3 11.0 9.5 73 2.5 S 17 22 9 12 1018.8 1018.7 0.0
11/10:00pm 14.2 10.9 9.4 73 2.5 SSE 17 24 9 13 1018.8 1018.7 0.0
11/09:30pm 13.8 10.5 9.5 75 2.2 SSE 17 20 9 11 1018.6 1018.5 0.0
11/09:00pm 12.6 9.8 8.7 77 1.9 SSW 13 17 7 9 1018.5 1018.4 0.0
11/08:30pm 13.8 11.1 8.8 72 2.5 SSW 13 17 7 9 1018.1 1018.0 0.0
11/08:00pm 15.3 12.2 8.8 65 3.3 SSW 15 20 8 11 1017.7 1017.6 0.0
11/07:30pm 16.4 12.9 8.9 61 3.9 SSW 17 20 9 11 1017.7 1017.6 0.0
11/07:00pm 17.4 14.0 9.1 58 4.3 SSW 17 22 9 12 1017.4 1017.3 0.0
11/06:30pm 18.1 13.8 9.2 56 4.7 SW 22 32 12 17 1017.4 1017.3 0.0
11/06:00pm 19.0 14.7 10.6 58 4.5 WSW 24 32 13 17 1017.3 1017.2 0.0
11/05:30pm 19.4 15.4 10.4 56 4.9 WSW 22 28 12 15 1016.9 1016.8 0.0
11/05:00pm 19.5 14.7 10.2 55 5.0 WSW 26 35 14 19 1017.0 1016.9 0.0
11/04:30pm 19.7 15.0 10.7 56 4.9 WSW 26 33 14 18 1017.0 1016.9 0.0
11/04:00pm 19.9 14.8 10.6 55 5.0 WSW 28 35 15 19 1017.2 1017.1 0.0
11/03:30pm 20.3 15.6 10.7 54 5.2 WSW 26 32 14 17 1017.3 1017.2 0.0
11/03:00pm 20.2 15.6 9.7 51 5.6 WSW 24 35 13 19 1017.3 1017.2 0.0
11/02:30pm 20.6 16.1 10.1 51 5.7 WSW 24 35 13 19 1017.6 1017.5 0.0
11/02:00pm 19.3 15.2 10.0 55 5.0 SW 22 32 12 17 1017.6 1017.5 0.0
11/01:30pm 20.4 17.0 11.1 55 5.1 WSW 20 28 11 15 1017.5 1017.4 0.0
11/01:00pm 20.3 16.6 11.5 57 4.9 SW 22 30 12 16 1017.5 1017.4 0.0
11/12:30pm 18.0 15.3 10.4 61 4.1 WSW 15 20 8 11 1017.6 1017.5 0.0
11/12:00pm 19.2 17.7 10.7 58 4.6 S 9 15 5 8 1017.7 1017.6 0.0
11/11:30am 17.4 15.0 10.1 62 3.9 S 13 19 7 10 1017.9 1017.8 0.0
11/11:00am 17.3 15.5 10.9 66 3.4 S 11 17 6 9 1017.8 1017.7 0.0
11/10:30am 16.8 14.9 11.7 72 2.8 S 13 17 7 9 1018.0 1017.9 0.0
11/10:00am 16.6 14.7 12.9 79 2.1 SSW 15 19 8 10 1018.3 1018.2 0.0
11/09:30am 15.4 13.7 12.3 82 1.7 S 13 15 7 8 1018.0 1017.9 0.0
11/09:00am 14.8 13.8 12.3 85 1.4 SSE 9 13 5 7 1017.7 1017.6 0.8
11/08:30am 14.8 14.3 12.7 87 1.2 WSW 7 13 4 7 1017.2 1017.1 0.6
11/08:00am 15.0 15.2 13.0 88 1.1 NE 4 7 2 4 1016.8 1016.7 0.6
11/07:30am 13.5 12.8 11.9 90 0.9 NE 7 7 4 4 1016.5 1016.4 0.6
11/07:00am 13.3 12.7 11.7 90 0.9 ENE 6 7 3 4 1016.3 1016.2 0.6
11/06:30am 13.0 12.3 11.4 90 0.8 SW 6 13 3 7 1016.2 1016.1 0.6
11/06:00am 13.0 11.7 11.4 90 0.8 NNE 9 11 5 6 1015.9 1015.8 0.6
11/05:30am 12.8 11.5 11.2 90 0.8 NE 9 11 5 6 1015.8 1015.7 0.6
11/05:00am 11.7 11.8 10.1 90 0.8 CALM 0 0 0 0 1015.7 1015.6 0.6
11/04:30am 12.2 12.0 10.4 89 0.9 SSW 2 6 1 3 1015.5 1015.5 0.6
11/04:00am 12.5 11.5 10.9 90 0.8 SSW 7 9 4 5 1015.4 1015.4 0.6
11/03:30am 12.6 11.5 10.7 88 1.0 SSW 7 9 4 5 1015.4 1015.4 0.6
11/03:00am 12.6 11.2 10.8 89 0.9 SW 9 11 5 6 1015.4 1015.4 0.6
11/02:30am 12.4 10.9 10.5 88 1.0 SW 9 11 5 6 1015.4 1015.4 0.6
11/02:00am 12.8 11.0 10.9 88 1.0 SW 11 13 6 7 1015.4 1015.4 0.6
11/01:30am 13.4 11.7 11.3 87 1.1 SW 11 15 6 8 1015.4 1015.4 0.6
11/01:00am 13.7 12.1 11.4 86 1.2 SW 11 13 6 7 1015.3 1015.3 0.6
11/12:30am 14.2 13.0 11.7 85 1.3 SSW 9 11 5 6 1015.2 1015.2 0.6
11/12:00am 15.5 14.2 12.4 82 1.7 SW 11 15 6 8 1015.1 1015.1 0.6
 
Date/Time
EDT
Temp
°C
App
Temp
°C
Dew
Point
Rel
Hum
%
Delta-T
°C
Wind Press
QNH
hPa
Press
MSL
hPa
Rain
since 9 am
mm
Dir
 
Spd
km/h
Gust
km/h
Spd
kts
Gust
kts
10/11:30pm 16.2 14.9 12.6 79 2.0 SW 11 15 6 8 1015.0 1015.0 0.6
10/11:00pm 16.3 15.8 13.8 85 1.4 SW 9 13 5 7 1015.0 1015.0 0.6
10/10:51pm 16.3 15.8 13.8 85 1.4 SW 9 13 5 7 1015.1 1015.1 0.6
10/10:35pm 16.4 15.6 13.9 85 1.4 SW 11 15 6 8 1015.0 1015.0 0.6
10/10:30pm 16.4 15.6 13.9 85 1.4 SW 11 15 6 8 1015.0 1015.0 0.6
10/10:19pm 16.6 15.4 14.1 85 1.4 SW 13 19 7 10 1014.9 1014.9 0.6
10/10:06pm 17.0 15.9 14.3 84 1.5 WSW 13 19 7 10 1014.9 1014.9 0.6
10/10:00pm 17.0 15.9 14.3 84 1.5 W 13 20 7 11 1014.8 1014.8 0.6
10/09:30pm 17.0 16.2 13.9 82 1.8 WNW 11 15 6 8 1014.6 1014.6 0.6
10/09:00pm 17.2 15.9 13.7 80 2.0 WNW 13 17 7 9 1014.4 1014.4 0.6
10/08:30pm 17.2 15.8 13.5 79 2.1 WNW 13 17 7 9 1014.4 1014.4 0.6
10/08:00pm 17.6 17.1 13.7 78 2.2 WNW 9 13 5 7 1014.2 1014.2 0.6
10/07:30pm 17.7 16.0 13.6 77 2.3 W 15 19 8 10 1014.1 1014.1 0.6
10/07:00pm 17.9 16.6 13.6 76 2.4 WNW 13 19 7 10 1013.7 1013.7 0.6
10/06:30pm 18.9 16.7 13.3 70 3.2 WNW 17 20 9 11 1013.6 1013.6 0.6
10/06:00pm 17.7 17.2 14.8 83 1.7 WNW 11 19 6 10 1013.5 1013.5 0.4
10/05:30pm 19.6 16.8 13.3 67 3.6 WNW 20 28 11 15 1013.5 1013.5 0.4
10/05:00pm 18.8 16.0 12.5 67 3.5 WNW 19 26 10 14 1013.5 1013.5 0.4
10/04:30pm 18.5 14.5 13.1 71 3.0 W 26 32 14 17 1013.5 1013.5 0.4
10/04:00pm 19.1 16.3 13.3 69 3.3 WNW 20 28 11 15 1013.5 1013.5 0.4
10/03:30pm 20.0 16.7 12.7 63 4.1 WNW 22 32 12 17 1013.7 1013.7 0.4
10/03:00pm 20.6 17.7 14.0 66 3.8 NW 22 30 12 16 1013.9 1013.9 0.4
10/02:30pm 20.8 18.8 15.4 71 3.2 WNW 20 30 11 16 1014.0 1014.0 0.4
10/02:00pm 19.1 17.0 13.7 71 3.1 WNW 17 22 9 12 1014.1 1014.1 0.4
10/01:30pm 19.3 17.6 13.5 69 3.3 NW 15 22 8 12 1014.1 1014.1 0.4
10/01:00pm 17.9 16.8 14.4 80 2.0 NNW 13 17 7 9 1014.2 1014.2 0.4
10/12:44pm 16.9 14.9 15.4 91 0.9 NNW 20 26 11 14 1014.3 1014.3 0.4
10/12:30pm 16.7 14.7 15.4 92 0.8 NW 20 24 11 13 1014.4 1014.4 0.4
10/12:05pm 16.4 14.0 13.7 84 1.5 WNW 19 26 10 14 1014.7 1014.7 0.0
10/12:00pm 16.6 14.3 13.1 80 2.0 NW 17 22 9 12 1014.7 1014.7 0.0
10/11:30am 17.2 17.1 13.3 78 2.2 WSW 6 13 3 7 1014.8 1014.8 0.0
10/11:00am 17.6 16.7 12.7 73 2.7 NW 9 15 5 8 1014.9 1014.9 0.0
10/10:30am 17.1 15.6 12.0 72 2.8 NNW 11 17 6 9 1014.8 1014.8 0.0
10/10:00am 16.3 15.4 12.7 79 2.0 N 9 15 5 8 1014.9 1014.9 0.0
10/09:51am 16.1 15.0 13.0 82 1.7 N 11 15 6 8 1014.9 1014.9 0.0
10/09:37am 15.9 14.4 13.0 83 1.6 NNW 13 17 7 9 1015.0 1015.0 0.0
10/09:30am 16.0 14.7 12.4 79 2.0 NW 11 19 6 10 1014.9 1014.9 0.0
10/09:00am 15.5 15.1 12.3 81 1.7 N 6 9 3 5 1014.9 1014.9 0.0
10/08:30am 14.8 14.2 12.3 85 1.4 NE 7 9 4 5 1014.8 1014.8 0.0
10/08:00am 14.1 13.0 11.8 86 1.2 NNE 9 15 5 8 1014.6 1014.6 0.0
10/07:30am 13.3 12.0 11.4 88 1.0 NNE 9 11 5 6 1014.7 1014.7 0.0
10/07:00am 12.8 11.9 11.2 90 0.8 N 7 11 4 6 1014.5 1014.5 0.0
10/06:30am 12.3 10.5 10.9 91 0.7 NNE 11 15 6 8 1014.2 1014.2 0.0
10/06:00am 12.0 10.1 10.6 91 0.7 NNE 11 15 6 8 1014.3 1014.3 0.0
10/05:30am 11.9 9.9 10.3 90 0.8 NNE 11 15 6 8 1014.3 1014.3 0.0
10/05:00am 12.1 10.6 10.7 91 0.7 NNE 9 13 5 7 1014.5 1014.5 0.0
10/04:30am 11.9 10.0 10.5 91 0.7 NNE 11 13 6 7 1014.7 1014.7 0.0
10/04:00am 11.7 10.5 10.4 92 0.7 NNE 7 11 4 6 1014.9 1014.9 0.0
10/03:30am 11.7 10.5 10.3 91 0.7 NNE 7 9 4 5 1014.9 1014.9 0.0
10/03:00am 11.4 10.3 9.8 90 0.8 N 6 9 3 5 1015.1 1015.1 0.0
10/02:30am 12.0 10.5 10.4 90 0.8 NNE 9 11 5 6 1015.1 1015.1 0.0
10/02:00am 11.5 10.4 9.8 89 0.9 NNE 6 7 3 4 1015.4 1015.4 0.0
10/01:30am 12.5 11.4 10.7 89 0.9 N 7 9 4 5 1016.0 1015.9 0.0
10/01:00am 13.5 12.7 11.7 89 1.0 NE 7 9 4 5 1016.1 1016.0 0.0
10/12:30am 13.1 12.4 11.3 89 1.0 NE 6 7 3 4 1016.5 1016.4 0.0
10/12:00am 12.5 12.0 10.6 88 1.0 NE 4 7 2 4 1016.8 1016.7 0.0
 
Date/Time
EDT
Temp
°C
App
Temp
°C
Dew
Point
Rel
Hum
%
Delta-T
°C
Wind Press
QNH
hPa
Press
MSL
hPa
Rain
since 9 am
mm
Dir
 
Spd
km/h
Gust
km/h
Spd
kts
Gust
kts
09/11:30pm 12.9 13.2 11.0 88 1.0 CALM 0 0 0 0 1017.0 1016.9 0.0
09/11:00pm 12.3 11.6 9.9 85 1.2 NE 4 6 2 3 1017.4 1017.3 0.0
09/10:30pm 13.7 12.8 10.7 82 1.6 NNE 6 7 3 4 1017.5 1017.4 0.0
09/10:00pm 14.8 14.0 11.6 81 1.7 WNW 7 9 4 5 1017.7 1017.6 0.0
09/09:30pm 14.6 14.9 11.0 79 1.9 CALM 0 4 0 2 1017.8 1017.7 0.0
09/09:00pm 15.9 15.3 11.7 76 2.3 SW 6 7 3 4 1018.0 1017.9 0.0
09/08:30pm 16.3 14.8 11.9 75 2.4 SW 11 17 6 9 1018.3 1018.2 0.0
09/08:00pm 16.8 15.1 12.3 75 2.5 SW 13 17 7 9 1018.2 1018.1 0.0
09/07:30pm 17.2 15.2 12.7 75 2.5 WSW 15 20 8 11 1018.4 1018.3 0.0
09/07:00pm 17.6 15.7 12.9 74 2.6 WSW 15 20 8 11 1018.3 1018.2 0.0
09/06:30pm 17.7 16.0 12.4 71 2.9 W 13 19 7 10 1018.3 1018.2 0.0
09/06:00pm 18.8 17.0 13.2 70 3.2 WSW 15 20 8 11 1018.3 1018.2 0.0
09/05:30pm 19.1 17.3 12.1 64 3.9 WSW 13 20 7 11 1018.2 1018.1 0.0
09/05:00pm 19.5 17.0 12.3 63 4.0 WSW 17 26 9 14 1018.4 1018.3 0.0

Other Formats:

Comma delimited format used in spreadsheet applications
http://www.bom.gov.au/fwo/IDT60801/IDT60801.94956.axf

JavaScript Object Notation format (JSON) in row-major order
http://www.bom.gov.au/fwo/IDT60801/IDT60801.94956.json